sensor_id;sensor_type;location;lat;lon;timestamp;P1;durP1;ratioP1;P2;durP2;ratioP2
2476;SDS011;1249;51.270;6.756;2023-04-24T00:00:00;1.50;;;1.40;;
2476;SDS011;1249;51.270;6.756;2023-04-24T00:02:26;1.57;;;1.33;;
2476;SDS011;1249;51.270;6.756;2023-04-24T00:04:51;1.97;;;1.40;;
2476;SDS011;1249;51.270;6.756;2023-04-24T00:07:17;1.50;;;1.37;;
2476;SDS011;1249;51.270;6.756;2023-04-24T00:09:44;4.20;;;1.30;;
2476;SDS011;1249;51.270;6.756;2023-04-24T00:12:10;1.57;;;1.47;;
2476;SDS011;1249;51.270;6.756;2023-04-24T00:14:36;2.17;;;1.50;;
2476;SDS011;1249;51.270;6.756;2023-04-24T00:17:01;1.50;;;1.40;;
2476;SDS011;1249;51.270;6.756;2023-04-24T00:19:27;1.63;;;1.30;;
2476;SDS011;1249;51.270;6.756;2023-04-24T00:21:54;2.33;;;1.30;;
2476;SDS011;1249;51.270;6.756;2023-04-24T00:24:20;1.50;;;1.30;;
2476;SDS011;1249;51.270;6.756;2023-04-24T00:26:46;1.53;;;1.43;;
2476;SDS011;1249;51.270;6.756;2023-04-24T00:29:11;2.63;;;1.50;;
2476;SDS011;1249;51.270;6.756;2023-04-24T00:31:37;1.80;;;1.70;;
2476;SDS011;1249;51.270;6.756;2023-04-24T00:34:03;1.93;;;1.30;;
2476;SDS011;1249;51.270;6.756;2023-04-24T00:36:29;1.63;;;1.50;;
2476;SDS011;1249;51.270;6.756;2023-04-24T00:38:55;1.80;;;1.70;;
2476;SDS011;1249;51.270;6.756;2023-04-24T00:41:21;1.40;;;1.30;;
2476;SDS011;1249;51.270;6.756;2023-04-24T00:43:47;1.80;;;1.70;;
2476;SDS011;1249;51.270;6.756;2023-04-24T00:46:13;1.67;;;1.57;;
2476;SDS011;1249;51.270;6.756;2023-04-24T00:48:39;2.50;;;2.00;;
2476;SDS011;1249;51.270;6.756;2023-04-24T00:51:05;1.97;;;1.87;;
2476;SDS011;1249;51.270;6.756;2023-04-24T00:53:31;2.00;;;1.77;;
2476;SDS011;1249;51.270;6.756;2023-04-24T00:55:57;2.67;;;1.83;;
2476;SDS011;1249;51.270;6.756;2023-04-24T00:58:24;1.37;;;1.27;;
2476;SDS011;1249;51.270;6.756;2023-04-24T01:00:50;2.47;;;1.70;;
2476;SDS011;1249;51.270;6.756;2023-04-24T01:03:18;2.80;;;1.40;;
2476;SDS011;1249;51.270;6.756;2023-04-24T01:05:47;2.20;;;2.00;;
2476;SDS011;1249;51.270;6.756;2023-04-24T01:08:14;2.33;;;2.07;;
2476;SDS011;1249;51.270;6.756;2023-04-24T01:10:40;3.33;;;2.43;;
2476;SDS011;1249;51.270;6.756;2023-04-24T01:13:07;3.00;;;1.90;;
2476;SDS011;1249;51.270;6.756;2023-04-24T01:15:34;2.70;;;2.07;;
2476;SDS011;1249;51.270;6.756;2023-04-24T01:18:02;2.17;;;2.00;;
2476;SDS011;1249;51.270;6.756;2023-04-24T01:20:29;1.90;;;1.80;;
2476;SDS011;1249;51.270;6.756;2023-04-24T01:22:55;3.80;;;2.43;;
2476;SDS011;1249;51.270;6.756;2023-04-24T01:25:21;2.50;;;2.10;;
2476;SDS011;1249;51.270;6.756;2023-04-24T01:27:47;2.60;;;2.40;;
2476;SDS011;1249;51.270;6.756;2023-04-24T01:30:13;2.47;;;2.27;;
2476;SDS011;1249;51.270;6.756;2023-04-24T01:32:39;3.07;;;2.83;;
2476;SDS011;1249;51.270;6.756;2023-04-24T01:35:07;2.80;;;2.60;;
2476;SDS011;1249;51.270;6.756;2023-04-24T01:37:32;3.70;;;3.00;;
2476;SDS011;1249;51.270;6.756;2023-04-24T01:39:58;4.47;;;4.07;;
2476;SDS011;1249;51.270;6.756;2023-04-24T01:42:24;5.30;;;4.37;;
2476;SDS011;1249;51.270;6.756;2023-04-24T01:44:50;3.50;;;3.20;;
2476;SDS011;1249;51.270;6.756;2023-04-24T01:47:16;4.07;;;3.70;;
2476;SDS011;1249;51.270;6.756;2023-04-24T01:49:42;5.20;;;4.70;;
2476;SDS011;1249;51.270;6.756;2023-04-24T01:52:07;4.70;;;4.30;;
2476;SDS011;1249;51.270;6.756;2023-04-24T01:54:33;6.13;;;4.70;;
2476;SDS011;1249;51.270;6.756;2023-04-24T01:56:59;5.00;;;4.23;;
2476;SDS011;1249;51.270;6.756;2023-04-24T01:59:26;5.57;;;4.10;;
2476;SDS011;1249;51.270;6.756;2023-04-24T02:01:52;7.50;;;4.37;;
2476;SDS011;1249;51.270;6.756;2023-04-24T02:04:18;8.73;;;5.27;;
2476;SDS011;1249;51.270;6.756;2023-04-24T02:06:44;5.83;;;4.83;;
2476;SDS011;1249;51.270;6.756;2023-04-24T02:09:09;6.43;;;5.83;;
2476;SDS011;1249;51.270;6.756;2023-04-24T02:11:35;8.03;;;5.87;;
2476;SDS011;1249;51.270;6.756;2023-04-24T02:14:01;5.40;;;4.83;;
2476;SDS011;1249;51.270;6.756;2023-04-24T02:16:27;6.23;;;5.30;;
2476;SDS011;1249;51.270;6.756;2023-04-24T02:18:57;4.10;;;3.13;;
2476;SDS011;1249;51.270;6.756;2023-04-24T02:21:22;5.17;;;4.67;;
2476;SDS011;1249;51.270;6.756;2023-04-24T02:23:48;7.27;;;6.30;;
2476;SDS011;1249;51.270;6.756;2023-04-24T02:26:13;5.33;;;4.80;;
2476;SDS011;1249;51.270;6.756;2023-04-24T02:28:40;5.83;;;5.10;;
2476;SDS011;1249;51.270;6.756;2023-04-24T02:31:05;8.43;;;6.57;;
2476;SDS011;1249;51.270;6.756;2023-04-24T02:33:31;10.80;;;5.80;;
2476;SDS011;1249;51.270;6.756;2023-04-24T02:35:57;10.20;;;6.90;;
2476;SDS011;1249;51.270;6.756;2023-04-24T02:38:22;8.63;;;6.33;;
2476;SDS011;1249;51.270;6.756;2023-04-24T02:40:48;10.63;;;6.30;;
2476;SDS011;1249;51.270;6.756;2023-04-24T02:43:13;10.17;;;6.87;;
2476;SDS011;1249;51.270;6.756;2023-04-24T02:45:39;8.37;;;7.40;;
2476;SDS011;1249;51.270;6.756;2023-04-24T02:48:04;8.30;;;6.90;;
2476;SDS011;1249;51.270;6.756;2023-04-24T02:50:30;7.00;;;6.30;;
2476;SDS011;1249;51.270;6.756;2023-04-24T02:52:56;9.73;;;7.07;;
2476;SDS011;1249;51.270;6.756;2023-04-24T02:55:22;8.00;;;6.27;;
2476;SDS011;1249;51.270;6.756;2023-04-24T02:57:47;8.30;;;7.20;;
2476;SDS011;1249;51.270;6.756;2023-04-24T03:00:13;10.20;;;7.10;;
2476;SDS011;1249;51.270;6.756;2023-04-24T03:02:39;8.30;;;7.17;;
2476;SDS011;1249;51.270;6.756;2023-04-24T03:05:04;7.57;;;6.80;;
2476;SDS011;1249;51.270;6.756;2023-04-24T03:07:30;10.63;;;8.40;;
2476;SDS011;1249;51.270;6.756;2023-04-24T03:09:57;9.33;;;7.93;;
2476;SDS011;1249;51.270;6.756;2023-04-24T03:12:23;11.33;;;8.60;;
2476;SDS011;1249;51.270;6.756;2023-04-24T03:14:49;8.07;;;6.70;;
2476;SDS011;1249;51.270;6.756;2023-04-24T03:17:14;8.63;;;7.40;;
2476;SDS011;1249;51.270;6.756;2023-04-24T03:19:40;12.10;;;7.63;;
2476;SDS011;1249;51.270;6.756;2023-04-24T03:22:05;10.23;;;7.67;;
2476;SDS011;1249;51.270;6.756;2023-04-24T03:24:31;10.70;;;7.53;;
2476;SDS011;1249;51.270;6.756;2023-04-24T03:26:57;7.90;;;6.33;;
2476;SDS011;1249;51.270;6.756;2023-04-24T03:29:22;6.57;;;4.90;;
2476;SDS011;1249;51.270;6.756;2023-04-24T03:31:48;8.90;;;6.23;;
2476;SDS011;1249;51.270;6.756;2023-04-24T03:34:13;7.77;;;7.03;;
2476;SDS011;1249;51.270;6.756;2023-04-24T03:36:39;6.50;;;5.90;;
2476;SDS011;1249;51.270;6.756;2023-04-24T03:39:04;8.93;;;8.03;;
2476;SDS011;1249;51.270;6.756;2023-04-24T03:41:30;13.20;;;7.27;;
2476;SDS011;1249;51.270;6.756;2023-04-24T03:43:56;6.80;;;5.67;;
2476;SDS011;1249;51.270;6.756;2023-04-24T03:46:21;9.10;;;7.17;;
2476;SDS011;1249;51.270;6.756;2023-04-24T03:48:47;7.67;;;6.40;;
2476;SDS011;1249;51.270;6.756;2023-04-24T03:51:12;7.37;;;6.43;;
2476;SDS011;1249;51.270;6.756;2023-04-24T03:53:38;5.90;;;4.37;;
2476;SDS011;1249;51.270;6.756;2023-04-24T03:56:03;6.60;;;5.60;;
2476;SDS011;1249;51.270;6.756;2023-04-24T03:58:29;8.83;;;6.70;;
2476;SDS011;1249;51.270;6.756;2023-04-24T04:00:55;8.73;;;7.07;;
2476;SDS011;1249;51.270;6.756;2023-04-24T04:03:23;7.27;;;6.30;;
2476;SDS011;1249;51.270;6.756;2023-04-24T04:05:48;7.60;;;6.60;;
2476;SDS011;1249;51.270;6.756;2023-04-24T04:08:14;9.17;;;7.77;;
2476;SDS011;1249;51.270;6.756;2023-04-24T04:10:40;7.80;;;6.80;;
2476;SDS011;1249;51.270;6.756;2023-04-24T04:13:05;7.97;;;7.17;;
2476;SDS011;1249;51.270;6.756;2023-04-24T04:15:31;11.13;;;7.93;;
2476;SDS011;1249;51.270;6.756;2023-04-24T04:17:57;9.10;;;7.23;;
2476;SDS011;1249;51.270;6.756;2023-04-24T04:20:22;8.97;;;7.77;;
2476;SDS011;1249;51.270;6.756;2023-04-24T04:22:48;6.43;;;5.80;;
2476;SDS011;1249;51.270;6.756;2023-04-24T04:25:13;8.77;;;7.90;;
2476;SDS011;1249;51.270;6.756;2023-04-24T04:27:39;8.97;;;7.80;;
2476;SDS011;1249;51.270;6.756;2023-04-24T04:30:06;9.87;;;6.80;;
2476;SDS011;1249;51.270;6.756;2023-04-24T04:32:33;10.17;;;6.40;;
2476;SDS011;1249;51.270;6.756;2023-04-24T04:35:00;3.67;;;3.37;;
2476;SDS011;1249;51.270;6.756;2023-04-24T04:37:29;6.13;;;5.63;;
2476;SDS011;1249;51.270;6.756;2023-04-24T04:39:56;7.47;;;6.67;;
2476;SDS011;1249;51.270;6.756;2023-04-24T04:42:25;7.00;;;5.90;;
2476;SDS011;1249;51.270;6.756;2023-04-24T04:44:52;7.40;;;6.33;;
2476;SDS011;1249;51.270;6.756;2023-04-24T04:47:18;7.80;;;6.93;;
2476;SDS011;1249;51.270;6.756;2023-04-24T04:49:47;7.37;;;4.50;;
2476;SDS011;1249;51.270;6.756;2023-04-24T04:52:13;8.60;;;6.40;;
2476;SDS011;1249;51.270;6.756;2023-04-24T04:54:38;7.60;;;6.80;;
2476;SDS011;1249;51.270;6.756;2023-04-24T04:57:04;7.40;;;6.70;;
2476;SDS011;1249;51.270;6.756;2023-04-24T04:59:30;6.70;;;5.70;;
2476;SDS011;1249;51.270;6.756;2023-04-24T05:01:56;8.30;;;6.27;;
2476;SDS011;1249;51.270;6.756;2023-04-24T05:04:21;7.83;;;6.93;;
2476;SDS011;1249;51.270;6.756;2023-04-24T05:06:47;8.00;;;6.73;;
2476;SDS011;1249;51.270;6.756;2023-04-24T05:09:12;6.47;;;5.37;;
2476;SDS011;1249;51.270;6.756;2023-04-24T05:11:38;6.93;;;5.80;;
2476;SDS011;1249;51.270;6.756;2023-04-24T05:14:03;8.43;;;6.73;;
2476;SDS011;1249;51.270;6.756;2023-04-24T05:16:29;5.87;;;5.30;;
2476;SDS011;1249;51.270;6.756;2023-04-24T05:18:55;6.70;;;6.10;;
2476;SDS011;1249;51.270;6.756;2023-04-24T05:21:21;6.27;;;5.67;;
2476;SDS011;1249;51.270;6.756;2023-04-24T05:23:47;5.63;;;5.10;;
2476;SDS011;1249;51.270;6.756;2023-04-24T05:26:13;7.23;;;5.10;;
2476;SDS011;1249;51.270;6.756;2023-04-24T05:28:39;8.57;;;6.43;;
2476;SDS011;1249;51.270;6.756;2023-04-24T05:31:05;5.80;;;5.30;;
2476;SDS011;1249;51.270;6.756;2023-04-24T05:33:31;5.93;;;5.40;;
2476;SDS011;1249;51.270;6.756;2023-04-24T05:35:57;7.97;;;5.90;;
2476;SDS011;1249;51.270;6.756;2023-04-24T05:38:23;7.70;;;5.30;;
2476;SDS011;1249;51.270;6.756;2023-04-24T05:41:04;10.90;;;6.43;;
2476;SDS011;1249;51.270;6.756;2023-04-24T05:43:30;9.93;;;6.10;;
2476;SDS011;1249;51.270;6.756;2023-04-24T05:45:55;6.97;;;5.23;;
2476;SDS011;1249;51.270;6.756;2023-04-24T05:50:49;5.60;;;4.80;;
2476;SDS011;1249;51.270;6.756;2023-04-24T05:53:14;6.27;;;5.43;;
2476;SDS011;1249;51.270;6.756;2023-04-24T05:55:40;4.33;;;3.93;;
2476;SDS011;1249;51.270;6.756;2023-04-24T05:58:06;7.50;;;5.43;;
2476;SDS011;1249;51.270;6.756;2023-04-24T06:00:31;6.93;;;5.23;;
2476;SDS011;1249;51.270;6.756;2023-04-24T06:02:58;7.77;;;5.73;;
2476;SDS011;1249;51.270;6.756;2023-04-24T06:05:24;6.23;;;5.13;;
2476;SDS011;1249;51.270;6.756;2023-04-24T06:07:50;7.50;;;5.43;;
2476;SDS011;1249;51.270;6.756;2023-04-24T06:10:16;6.27;;;5.17;;
2476;SDS011;1249;51.270;6.756;2023-04-24T06:12:41;8.07;;;5.10;;
2476;SDS011;1249;51.270;6.756;2023-04-24T06:15:07;5.77;;;4.63;;
2476;SDS011;1249;51.270;6.756;2023-04-24T06:17:33;5.67;;;4.80;;
2476;SDS011;1249;51.270;6.756;2023-04-24T06:19:59;5.13;;;4.60;;
2476;SDS011;1249;51.270;6.756;2023-04-24T06:22:25;5.17;;;4.67;;
2476;SDS011;1249;51.270;6.756;2023-04-24T06:24:50;5.23;;;4.50;;
2476;SDS011;1249;51.270;6.756;2023-04-24T06:27:16;4.60;;;4.20;;
2476;SDS011;1249;51.270;6.756;2023-04-24T06:29:41;5.57;;;4.30;;
2476;SDS011;1249;51.270;6.756;2023-04-24T06:32:07;6.43;;;4.30;;
2476;SDS011;1249;51.270;6.756;2023-04-24T06:34:32;4.10;;;3.73;;
2476;SDS011;1249;51.270;6.756;2023-04-24T06:36:59;5.67;;;3.70;;
2476;SDS011;1249;51.270;6.756;2023-04-24T06:39:25;4.23;;;3.23;;
2476;SDS011;1249;51.270;6.756;2023-04-24T06:41:50;5.70;;;3.73;;
2476;SDS011;1249;51.270;6.756;2023-04-24T06:44:16;5.00;;;3.50;;
2476;SDS011;1249;51.270;6.756;2023-04-24T06:46:41;5.60;;;3.63;;
2476;SDS011;1249;51.270;6.756;2023-04-24T06:49:07;3.90;;;3.50;;
2476;SDS011;1249;51.270;6.756;2023-04-24T06:51:33;4.80;;;3.97;;
2476;SDS011;1249;51.270;6.756;2023-04-24T06:53:58;4.20;;;3.80;;
2476;SDS011;1249;51.270;6.756;2023-04-24T06:56:24;4.10;;;3.70;;
2476;SDS011;1249;51.270;6.756;2023-04-24T06:58:50;2.97;;;2.67;;
2476;SDS011;1249;51.270;6.756;2023-04-24T07:01:16;2.73;;;2.57;;
2476;SDS011;1249;51.270;6.756;2023-04-24T07:03:42;3.70;;;3.27;;
2476;SDS011;1249;51.270;6.756;2023-04-24T07:06:09;2.70;;;2.50;;
2476;SDS011;1249;51.270;6.756;2023-04-24T07:08:37;2.70;;;2.50;;
2476;SDS011;1249;51.270;6.756;2023-04-24T07:11:03;4.87;;;2.70;;
2476;SDS011;1249;51.270;6.756;2023-04-24T07:13:29;2.50;;;2.30;;
2476;SDS011;1249;51.270;6.756;2023-04-24T07:15:55;7.97;;;1.90;;
2476;SDS011;1249;51.270;6.756;2023-04-24T07:18:21;2.73;;;2.50;;
2476;SDS011;1249;51.270;6.756;2023-04-24T07:20:47;2.93;;;2.50;;
2476;SDS011;1249;51.270;6.756;2023-04-24T07:23:15;2.60;;;2.40;;
2476;SDS011;1249;51.270;6.756;2023-04-24T07:25:40;2.23;;;2.03;;
2476;SDS011;1249;51.270;6.756;2023-04-24T07:28:06;2.33;;;2.13;;
2476;SDS011;1249;51.270;6.756;2023-04-24T07:30:32;1.50;;;1.40;;
2476;SDS011;1249;51.270;6.756;2023-04-24T07:32:58;1.30;;;1.20;;
2476;SDS011;1249;51.270;6.756;2023-04-24T07:35:24;2.80;;;1.37;;
2476;SDS011;1249;51.270;6.756;2023-04-24T07:37:51;1.43;;;1.33;;
2476;SDS011;1249;51.270;6.756;2023-04-24T07:40:17;2.13;;;1.30;;
2476;SDS011;1249;51.270;6.756;2023-04-24T07:42:45;1.30;;;1.20;;
2476;SDS011;1249;51.270;6.756;2023-04-24T07:45:13;2.47;;;1.10;;
2476;SDS011;1249;51.270;6.756;2023-04-24T07:47:39;1.10;;;1.00;;
2476;SDS011;1249;51.270;6.756;2023-04-24T07:50:08;1.10;;;1.00;;
2476;SDS011;1249;51.270;6.756;2023-04-24T07:52:34;1.20;;;1.00;;
2476;SDS011;1249;51.270;6.756;2023-04-24T07:54:59;0.90;;;0.73;;
2476;SDS011;1249;51.270;6.756;2023-04-24T07:57:26;1.00;;;0.90;;
2476;SDS011;1249;51.270;6.756;2023-04-24T07:59:52;1.83;;;0.90;;
2476;SDS011;1249;51.270;6.756;2023-04-24T08:02:17;1.50;;;1.00;;
2476;SDS011;1249;51.270;6.756;2023-04-24T08:04:43;1.20;;;0.97;;
2476;SDS011;1249;51.270;6.756;2023-04-24T08:07:08;0.97;;;0.87;;
2476;SDS011;1249;51.270;6.756;2023-04-24T08:09:34;1.50;;;1.10;;
2476;SDS011;1249;51.270;6.756;2023-04-24T08:12:00;1.53;;;1.30;;
2476;SDS011;1249;51.270;6.756;2023-04-24T08:14:26;1.50;;;1.23;;
2476;SDS011;1249;51.270;6.756;2023-04-24T08:16:53;1.30;;;1.20;;
2476;SDS011;1249;51.270;6.756;2023-04-24T08:19:21;1.60;;;1.10;;
2476;SDS011;1249;51.270;6.756;2023-04-24T08:21:46;1.80;;;1.33;;
2476;SDS011;1249;51.270;6.756;2023-04-24T08:24:12;1.63;;;1.10;;
2476;SDS011;1249;51.270;6.756;2023-04-24T08:26:37;5.33;;;1.43;;
2476;SDS011;1249;51.270;6.756;2023-04-24T08:29:03;1.37;;;1.00;;
2476;SDS011;1249;51.270;6.756;2023-04-24T08:31:29;4.70;;;1.30;;
2476;SDS011;1249;51.270;6.756;2023-04-24T08:33:55;1.43;;;1.10;;
2476;SDS011;1249;51.270;6.756;2023-04-24T08:36:20;1.53;;;1.43;;
2476;SDS011;1249;51.270;6.756;2023-04-24T08:38:46;1.80;;;1.57;;
2476;SDS011;1249;51.270;6.756;2023-04-24T08:41:12;1.60;;;1.40;;
2476;SDS011;1249;51.270;6.756;2023-04-24T08:43:40;1.10;;;1.00;;
2476;SDS011;1249;51.270;6.756;2023-04-24T08:46:06;1.67;;;1.50;;
2476;SDS011;1249;51.270;6.756;2023-04-24T08:48:32;1.30;;;1.20;;
2476;SDS011;1249;51.270;6.756;2023-04-24T08:50:58;1.43;;;1.30;;
2476;SDS011;1249;51.270;6.756;2023-04-24T08:53:24;1.30;;;1.03;;
2476;SDS011;1249;51.270;6.756;2023-04-24T08:55:50;4.40;;;1.50;;
2476;SDS011;1249;51.270;6.756;2023-04-24T08:58:18;1.40;;;1.30;;
2476;SDS011;1249;51.270;6.756;2023-04-24T09:00:44;2.10;;;1.90;;
2476;SDS011;1249;51.270;6.756;2023-04-24T09:03:13;2.83;;;2.63;;
2476;SDS011;1249;51.270;6.756;2023-04-24T09:05:41;2.53;;;2.33;;
2476;SDS011;1249;51.270;6.756;2023-04-24T09:08:12;2.40;;;2.00;;
2476;SDS011;1249;51.270;6.756;2023-04-24T09:10:39;2.07;;;1.87;;
2476;SDS011;1249;51.270;6.756;2023-04-24T09:13:05;2.43;;;2.10;;
2476;SDS011;1249;51.270;6.756;2023-04-24T09:15:34;2.30;;;2.10;;
2476;SDS011;1249;51.270;6.756;2023-04-24T09:18:00;4.17;;;2.77;;
2476;SDS011;1249;51.270;6.756;2023-04-24T09:20:26;3.27;;;2.30;;
2476;SDS011;1249;51.270;6.756;2023-04-24T09:22:55;2.83;;;2.60;;
2476;SDS011;1249;51.270;6.756;2023-04-24T09:25:22;3.70;;;2.77;;
2476;SDS011;1249;51.270;6.756;2023-04-24T09:27:59;2.57;;;2.13;;
2476;SDS011;1249;51.270;6.756;2023-04-24T09:30:26;3.20;;;2.90;;
2476;SDS011;1249;51.270;6.756;2023-04-24T09:33:14;2.90;;;2.40;;
2476;SDS011;1249;51.270;6.756;2023-04-24T09:35:41;3.17;;;2.43;;
2476;SDS011;1249;51.270;6.756;2023-04-24T09:38:08;2.43;;;2.23;;
2476;SDS011;1249;51.270;6.756;2023-04-24T09:40:34;2.97;;;2.17;;
2476;SDS011;1249;51.270;6.756;2023-04-24T09:43:00;4.57;;;2.70;;
2476;SDS011;1249;51.270;6.756;2023-04-24T09:45:28;4.00;;;3.13;;
2476;SDS011;1249;51.270;6.756;2023-04-24T09:48:00;5.17;;;2.80;;
2476;SDS011;1249;51.270;6.756;2023-04-24T09:50:26;3.40;;;3.10;;
2476;SDS011;1249;51.270;6.756;2023-04-24T09:52:58;5.13;;;3.30;;
2476;SDS011;1249;51.270;6.756;2023-04-24T09:55:26;4.07;;;3.43;;
2476;SDS011;1249;51.270;6.756;2023-04-24T09:57:54;3.57;;;3.27;;
2476;SDS011;1249;51.270;6.756;2023-04-24T10:00:21;4.23;;;3.20;;
2476;SDS011;1249;51.270;6.756;2023-04-24T10:02:50;6.80;;;3.23;;
2476;SDS011;1249;51.270;6.756;2023-04-24T10:05:27;3.30;;;3.00;;
2476;SDS011;1249;51.270;6.756;2023-04-24T10:08:01;4.13;;;3.33;;
2476;SDS011;1249;51.270;6.756;2023-04-24T10:10:28;3.40;;;2.73;;
2476;SDS011;1249;51.270;6.756;2023-04-24T10:12:54;5.30;;;3.50;;
2476;SDS011;1249;51.270;6.756;2023-04-24T10:15:20;3.77;;;3.47;;
2476;SDS011;1249;51.270;6.756;2023-04-24T10:17:50;4.37;;;3.00;;
2476;SDS011;1249;51.270;6.756;2023-04-24T10:20:23;3.87;;;3.43;;
2476;SDS011;1249;51.270;6.756;2023-04-24T10:22:50;4.13;;;3.50;;
2476;SDS011;1249;51.270;6.756;2023-04-24T10:25:21;4.63;;;3.47;;
2476;SDS011;1249;51.270;6.756;2023-04-24T10:27:49;3.80;;;3.40;;
2476;SDS011;1249;51.270;6.756;2023-04-24T10:30:16;3.67;;;3.37;;
2476;SDS011;1249;51.270;6.756;2023-04-24T10:32:42;4.20;;;3.20;;
2476;SDS011;1249;51.270;6.756;2023-04-24T10:35:08;3.20;;;2.90;;
2476;SDS011;1249;51.270;6.756;2023-04-24T10:37:39;4.90;;;2.67;;
2476;SDS011;1249;51.270;6.756;2023-04-24T10:40:11;3.20;;;2.67;;
2476;SDS011;1249;51.270;6.756;2023-04-24T10:42:40;6.60;;;3.40;;
2476;SDS011;1249;51.270;6.756;2023-04-24T10:45:15;2.80;;;2.60;;
2476;SDS011;1249;51.270;6.756;2023-04-24T10:50:23;3.80;;;2.67;;
2476;SDS011;1249;51.270;6.756;2023-04-24T10:52:51;5.80;;;3.53;;
2476;SDS011;1249;51.270;6.756;2023-04-24T10:55:39;3.63;;;2.90;;
2476;SDS011;1249;51.270;6.756;2023-04-24T10:58:11;6.87;;;3.50;;
2476;SDS011;1249;51.270;6.756;2023-04-24T11:00:38;6.23;;;4.40;;
2476;SDS011;1249;51.270;6.756;2023-04-24T11:03:05;6.13;;;3.83;;
2476;SDS011;1249;51.270;6.756;2023-04-24T11:08:26;8.00;;;3.83;;
2476;SDS011;1249;51.270;6.756;2023-04-24T11:13:23;5.60;;;3.20;;
2476;SDS011;1249;51.270;6.756;2023-04-24T11:18:49;3.40;;;3.10;;
2476;SDS011;1249;51.270;6.756;2023-04-24T11:21:25;7.17;;;3.13;;
2476;SDS011;1249;51.270;6.756;2023-04-24T11:23:56;4.17;;;2.67;;
2476;SDS011;1249;51.270;6.756;2023-04-24T11:26:22;5.03;;;2.87;;
2476;SDS011;1249;51.270;6.756;2023-04-24T11:29:05;5.27;;;2.67;;
2476;SDS011;1249;51.270;6.756;2023-04-24T11:31:40;8.80;;;2.90;;
2476;SDS011;1249;51.270;6.756;2023-04-24T11:34:13;2.90;;;2.27;;
2476;SDS011;1249;51.270;6.756;2023-04-24T11:36:43;3.20;;;2.33;;
2476;SDS011;1249;51.270;6.756;2023-04-24T11:39:10;2.73;;;2.50;;
2476;SDS011;1249;51.270;6.756;2023-04-24T11:41:36;5.10;;;3.30;;
2476;SDS011;1249;51.270;6.756;2023-04-24T11:44:03;5.93;;;3.13;;
2476;SDS011;1249;51.270;6.756;2023-04-24T11:46:30;8.83;;;3.60;;
2476;SDS011;1249;51.270;6.756;2023-04-24T11:48:57;3.87;;;2.90;;
2476;SDS011;1249;51.270;6.756;2023-04-24T11:51:23;5.57;;;2.27;;
2476;SDS011;1249;51.270;6.756;2023-04-24T11:53:56;3.40;;;2.73;;
2476;SDS011;1249;51.270;6.756;2023-04-24T11:56:22;3.40;;;2.80;;
2476;SDS011;1249;51.270;6.756;2023-04-24T11:58:48;5.37;;;2.73;;
2476;SDS011;1249;51.270;6.756;2023-04-24T12:01:16;6.30;;;2.90;;
2476;SDS011;1249;51.270;6.756;2023-04-24T12:03:46;5.80;;;2.40;;
2476;SDS011;1249;51.270;6.756;2023-04-24T12:06:12;8.13;;;3.30;;
2476;SDS011;1249;51.270;6.756;2023-04-24T12:08:38;3.13;;;2.80;;
2476;SDS011;1249;51.270;6.756;2023-04-24T12:11:05;2.80;;;2.23;;
2476;SDS011;1249;51.270;6.756;2023-04-24T12:13:32;3.10;;;2.20;;
2476;SDS011;1249;51.270;6.756;2023-04-24T12:15:59;6.37;;;3.37;;
2476;SDS011;1249;51.270;6.756;2023-04-24T12:18:26;3.90;;;2.37;;
2476;SDS011;1249;51.270;6.756;2023-04-24T12:20:52;7.77;;;2.67;;
2476;SDS011;1249;51.270;6.756;2023-04-24T12:23:33;4.67;;;2.40;;
2476;SDS011;1249;51.270;6.756;2023-04-24T12:26:00;4.47;;;2.53;;
2476;SDS011;1249;51.270;6.756;2023-04-24T12:28:34;6.30;;;2.43;;
2476;SDS011;1249;51.270;6.756;2023-04-24T12:31:01;3.87;;;2.40;;
2476;SDS011;1249;51.270;6.756;2023-04-24T12:33:26;3.47;;;2.50;;
2476;SDS011;1249;51.270;6.756;2023-04-24T12:35:52;7.33;;;2.03;;
2476;SDS011;1249;51.270;6.756;2023-04-24T12:38:23;2.57;;;1.97;;
2476;SDS011;1249;51.270;6.756;2023-04-24T12:41:12;6.37;;;3.70;;
2476;SDS011;1249;51.270;6.756;2023-04-24T12:43:51;3.00;;;2.00;;
2476;SDS011;1249;51.270;6.756;2023-04-24T12:46:17;5.67;;;2.07;;
2476;SDS011;1249;51.270;6.756;2023-04-24T12:48:43;1.90;;;1.67;;
2476;SDS011;1249;51.270;6.756;2023-04-24T12:51:08;4.20;;;2.20;;
2476;SDS011;1249;51.270;6.756;2023-04-24T12:53:34;5.87;;;2.27;;
2476;SDS011;1249;51.270;6.756;2023-04-24T12:55:59;4.93;;;1.40;;
2476;SDS011;1249;51.270;6.756;2023-04-24T12:58:25;6.80;;;2.30;;
2476;SDS011;1249;51.270;6.756;2023-04-24T13:00:51;2.33;;;1.80;;
2476;SDS011;1249;51.270;6.756;2023-04-24T13:03:16;2.57;;;1.57;;
2476;SDS011;1249;51.270;6.756;2023-04-24T13:05:42;4.60;;;1.63;;
2476;SDS011;1249;51.270;6.756;2023-04-24T13:08:08;3.43;;;1.50;;
2476;SDS011;1249;51.270;6.756;2023-04-24T13:10:34;1.90;;;1.53;;
2476;SDS011;1249;51.270;6.756;2023-04-24T13:13:00;1.77;;;1.20;;
2476;SDS011;1249;51.270;6.756;2023-04-24T13:15:26;2.47;;;1.50;;
2476;SDS011;1249;51.270;6.756;2023-04-24T13:17:51;1.53;;;1.20;;
2476;SDS011;1249;51.270;6.756;2023-04-24T13:20:17;1.50;;;1.40;;
2476;SDS011;1249;51.270;6.756;2023-04-24T13:22:43;2.33;;;1.53;;
2476;SDS011;1249;51.270;6.756;2023-04-24T13:25:08;3.03;;;1.43;;
2476;SDS011;1249;51.270;6.756;2023-04-24T13:27:35;2.93;;;1.37;;
2476;SDS011;1249;51.270;6.756;2023-04-24T13:30:00;3.67;;;1.30;;
2476;SDS011;1249;51.270;6.756;2023-04-24T13:32:26;1.40;;;1.27;;
2476;SDS011;1249;51.270;6.756;2023-04-24T13:34:52;4.60;;;1.60;;
2476;SDS011;1249;51.270;6.756;2023-04-24T13:37:18;1.50;;;1.27;;
2476;SDS011;1249;51.270;6.756;2023-04-24T13:39:43;2.07;;;1.30;;
2476;SDS011;1249;51.270;6.756;2023-04-24T13:42:09;4.23;;;1.47;;
2476;SDS011;1249;51.270;6.756;2023-04-24T13:44:35;2.40;;;1.30;;
2476;SDS011;1249;51.270;6.756;2023-04-24T13:47:01;2.07;;;1.50;;
2476;SDS011;1249;51.270;6.756;2023-04-24T13:49:26;2.50;;;1.63;;
2476;SDS011;1249;51.270;6.756;2023-04-24T13:51:52;3.50;;;1.53;;
2476;SDS011;1249;51.270;6.756;2023-04-24T13:54:19;4.37;;;1.47;;
2476;SDS011;1249;51.270;6.756;2023-04-24T13:56:45;2.30;;;1.57;;
2476;SDS011;1249;51.270;6.756;2023-04-24T13:59:12;2.70;;;1.40;;
2476;SDS011;1249;51.270;6.756;2023-04-24T14:01:38;2.90;;;1.40;;
2476;SDS011;1249;51.270;6.756;2023-04-24T14:04:03;4.17;;;1.40;;
2476;SDS011;1249;51.270;6.756;2023-04-24T14:06:29;3.43;;;1.30;;
2476;SDS011;1249;51.270;6.756;2023-04-24T14:08:56;2.03;;;1.33;;
2476;SDS011;1249;51.270;6.756;2023-04-24T14:11:21;2.37;;;1.47;;
2476;SDS011;1249;51.270;6.756;2023-04-24T14:13:47;1.60;;;1.30;;
2476;SDS011;1249;51.270;6.756;2023-04-24T14:16:13;2.20;;;1.80;;
2476;SDS011;1249;51.270;6.756;2023-04-24T14:18:39;1.53;;;1.10;;
2476;SDS011;1249;51.270;6.756;2023-04-24T14:21:05;2.07;;;1.40;;
2476;SDS011;1249;51.270;6.756;2023-04-24T14:23:30;2.27;;;1.60;;
2476;SDS011;1249;51.270;6.756;2023-04-24T14:25:57;2.60;;;1.10;;
2476;SDS011;1249;51.270;6.756;2023-04-24T14:28:23;3.33;;;1.20;;
2476;SDS011;1249;51.270;6.756;2023-04-24T14:30:49;2.70;;;1.47;;
2476;SDS011;1249;51.270;6.756;2023-04-24T14:33:15;3.77;;;1.50;;
2476;SDS011;1249;51.270;6.756;2023-04-24T14:35:41;1.90;;;1.60;;
2476;SDS011;1249;51.270;6.756;2023-04-24T14:38:07;1.97;;;1.33;;
2476;SDS011;1249;51.270;6.756;2023-04-24T14:40:33;2.73;;;1.60;;
2476;SDS011;1249;51.270;6.756;2023-04-24T14:42:59;5.73;;;2.07;;
2476;SDS011;1249;51.270;6.756;2023-04-24T14:45:25;3.30;;;2.03;;
2476;SDS011;1249;51.270;6.756;2023-04-24T14:47:51;2.03;;;1.30;;
2476;SDS011;1249;51.270;6.756;2023-04-24T14:50:17;1.70;;;1.60;;
2476;SDS011;1249;51.270;6.756;2023-04-24T14:52:43;3.00;;;1.47;;
2476;SDS011;1249;51.270;6.756;2023-04-24T14:55:08;1.47;;;1.33;;
2476;SDS011;1249;51.270;6.756;2023-04-24T14:57:34;1.40;;;1.30;;
2476;SDS011;1249;51.270;6.756;2023-04-24T15:00:01;7.40;;;1.70;;
2476;SDS011;1249;51.270;6.756;2023-04-24T15:02:28;1.73;;;1.57;;
2476;SDS011;1249;51.270;6.756;2023-04-24T15:04:54;4.23;;;1.40;;
2476;SDS011;1249;51.270;6.756;2023-04-24T15:07:19;1.30;;;1.20;;
2476;SDS011;1249;51.270;6.756;2023-04-24T15:09:45;1.33;;;1.20;;
2476;SDS011;1249;51.270;6.756;2023-04-24T15:12:12;1.73;;;1.27;;
2476;SDS011;1249;51.270;6.756;2023-04-24T15:14:38;1.70;;;1.60;;
2476;SDS011;1249;51.270;6.756;2023-04-24T15:17:03;2.03;;;1.80;;
2476;SDS011;1249;51.270;6.756;2023-04-24T15:19:29;1.40;;;1.30;;
2476;SDS011;1249;51.270;6.756;2023-04-24T15:21:54;2.60;;;1.50;;
2476;SDS011;1249;51.270;6.756;2023-04-24T15:24:20;1.87;;;1.60;;